createdAt,value
2022-10-22T00:00:51.462Z,85.21
2022-10-22T00:01:54.252Z,85.11
2022-10-22T00:02:56.946Z,85.33
2022-10-22T00:03:59.239Z,85.12
2022-10-22T00:05:01.395Z,85.07
2022-10-22T00:06:03.677Z,84.91
2022-10-22T00:07:05.811Z,85.05
2022-10-22T00:08:08.103Z,84.99
2022-10-22T00:09:11.086Z,84.84
2022-10-22T00:10:13.533Z,84.81
2022-10-22T00:11:18.720Z,84.79
2022-10-22T00:12:21.222Z,85.10
2022-10-22T00:13:23.662Z,84.94
2022-10-22T00:14:25.900Z,84.86
2022-10-22T00:15:28.271Z,84.84
2022-10-22T00:16:30.457Z,84.94
2022-10-22T00:17:32.882Z,84.87
2022-10-22T00:18:35.558Z,84.81
2022-10-22T00:19:38.003Z,84.42
2022-10-22T00:20:40.466Z,84.46
2022-10-22T00:21:42.644Z,84.41
2022-10-22T00:22:44.781Z,84.23
2022-10-22T00:23:47.224Z,84.18
2022-10-22T00:24:49.397Z,83.91
2022-10-22T00:25:53.158Z,83.79
2022-10-22T00:26:55.567Z,83.62
2022-10-22T00:27:57.866Z,83.52
2022-10-22T00:29:00.081Z,83.72
2022-10-22T00:30:07.987Z,83.65
2022-10-22T00:31:10.185Z,83.67
2022-10-22T00:32:12.434Z,83.59
2022-10-22T00:33:14.692Z,83.74
2022-10-22T00:34:18.777Z,83.71
2022-10-22T00:35:21.117Z,83.82
2022-10-22T00:36:23.295Z,83.80
2022-10-22T00:37:25.631Z,83.68
2022-10-22T00:38:27.823Z,83.94
2022-10-22T00:39:29.975Z,83.72
2022-10-22T00:40:32.237Z,83.41
2022-10-22T00:41:34.527Z,83.40
2022-10-22T00:42:36.777Z,83.54
2022-10-22T00:44:00.442Z,83.50
2022-10-22T00:45:11.331Z,83.52
2022-10-22T00:46:13.615Z,83.55
2022-10-22T00:47:17.782Z,83.58
2022-10-22T00:48:25.388Z,83.45
2022-10-22T00:49:27.609Z,83.75
2022-10-22T00:50:41.921Z,83.63
2022-10-22T00:51:44.067Z,83.48
2022-10-22T00:52:46.965Z,83.34
2022-10-22T00:53:56.094Z,83.23
2022-10-22T00:54:58.445Z,83.05
2022-10-22T00:56:01.662Z,82.83
2022-10-22T00:57:04.031Z,82.99
2022-10-22T00:58:06.564Z,83.33
2022-10-22T00:59:09.861Z,83.68
2022-10-22T01:00:12.754Z,84.14
2022-10-22T01:01:21.535Z,84.29
2022-10-22T01:02:23.991Z,84.36
2022-10-22T01:03:26.410Z,84.62
2022-10-22T01:04:28.675Z,84.60
2022-10-22T01:05:38.431Z,84.38
2022-10-22T01:06:40.723Z,84.80
2022-10-22T01:07:51.760Z,84.83
2022-10-22T01:09:02.821Z,85.24
2022-10-22T01:10:09.055Z,85.57
2022-10-22T01:11:35.502Z,85.79
2022-10-22T01:12:40.396Z,85.85
2022-10-22T01:13:51.898Z,86.14
2022-10-22T01:15:11.019Z,86.11
2022-10-22T01:16:22.007Z,86.57
2022-10-22T01:17:34.088Z,86.44
2022-10-22T01:19:04.231Z,86.54
2022-10-22T01:20:31.986Z,86.26
2022-10-22T01:21:46.619Z,86.48
2022-10-22T01:23:22.032Z,86.48
2022-10-22T01:24:41.643Z,86.36
2022-10-22T01:26:04.504Z,86.38
2022-10-22T01:27:48.998Z,86.94
2022-10-22T01:28:56.959Z,87.05
2022-10-22T01:30:05.097Z,87.29
2022-10-22T01:31:09.190Z,87.26
2022-10-22T01:32:16.404Z,87.22
2022-10-22T01:33:21.125Z,87.13
2022-10-22T01:34:25.389Z,87.09
2022-10-22T01:36:42.897Z,87.36
2022-10-22T01:37:56.221Z,87.47
2022-10-22T01:39:00.874Z,87.61
2022-10-22T01:40:05.212Z,87.55
2022-10-22T01:41:08.028Z,87.60
2022-10-22T01:42:12.814Z,87.50
2022-10-22T01:43:15.294Z,87.22
2022-10-22T01:45:51.724Z,87.51
2022-10-22T01:47:07.337Z,87.48
2022-10-22T01:48:21.299Z,87.06
2022-10-22T01:49:52.916Z,87.47
2022-10-22T01:51:35.354Z,86.94
2022-10-22T01:52:56.420Z,87.39
2022-10-22T01:54:10.263Z,87.04
2022-10-22T01:55:27.547Z,87.17
2022-10-22T01:56:36.494Z,87.29
2022-10-22T01:58:06.170Z,86.98
2022-10-22T01:59:25.007Z,86.98
2022-10-22T02:00:31.717Z,87.10
2022-10-22T02:01:42.891Z,87.08
2022-10-22T02:02:51.395Z,87.03
2022-10-22T02:04:10.683Z,87.13
2022-10-22T02:05:25.184Z,86.77
2022-10-22T02:06:29.700Z,86.63
2022-10-22T02:07:39.771Z,86.06
2022-10-22T02:08:43.235Z,85.61
2022-10-22T02:09:46.682Z,85.50
2022-10-22T02:10:50.702Z,85.56
2022-10-22T02:11:54.617Z,85.58
2022-10-22T02:13:00.115Z,85.93
2022-10-22T02:14:05.072Z,86.23
2022-10-22T02:15:09.136Z,86.08
2022-10-22T02:16:16.241Z,86.11
2022-10-22T02:17:21.496Z,86.10
2022-10-22T02:18:29.887Z,86.11
2022-10-22T02:19:56.440Z,86.43
2022-10-22T02:21:00.263Z,86.48
2022-10-22T02:22:03.330Z,86.33
2022-10-22T02:23:06.007Z,86.60
2022-10-22T02:24:08.388Z,86.55
2022-10-22T02:25:12.039Z,86.67
2022-10-22T02:26:30.829Z,86.67
2022-10-22T02:27:49.259Z,86.22
2022-10-22T02:29:06.913Z,86.22
2022-10-22T02:31:29.824Z,85.83
2022-10-22T02:32:39.361Z,85.94
2022-10-22T02:33:51.035Z,86.10
2022-10-22T02:34:55.419Z,86.19
2022-10-22T02:35:59.220Z,86.22
2022-10-22T02:37:03.359Z,86.55
2022-10-22T02:38:06.297Z,86.40
2022-10-22T02:39:10.388Z,86.52
2022-10-22T02:40:13.492Z,86.49
2022-10-22T02:41:17.703Z,86.42
2022-10-22T02:42:20.034Z,86.52
2022-10-22T02:43:24.678Z,86.81
2022-10-22T02:44:26.975Z,86.73
2022-10-22T02:45:29.740Z,86.67
2022-10-22T02:46:31.900Z,86.74
2022-10-22T02:47:34.186Z,87.02
2022-10-22T02:48:36.965Z,86.93
2022-10-22T02:49:39.428Z,87.02
2022-10-22T02:50:41.767Z,87.18
2022-10-22T02:51:43.894Z,87.27
2022-10-22T02:52:46.259Z,86.95
2022-10-22T02:53:48.384Z,87.26
2022-10-22T02:54:50.741Z,87.38
2022-10-22T02:55:52.951Z,87.22
2022-10-22T02:56:55.155Z,87.52
2022-10-22T02:57:57.472Z,87.67
2022-10-22T02:58:59.630Z,87.51
2022-10-22T03:00:02.010Z,87.75
2022-10-22T03:01:04.269Z,87.80
2022-10-22T03:02:06.446Z,87.63
2022-10-22T03:03:08.757Z,87.65
2022-10-22T03:04:11.170Z,87.68
2022-10-22T03:05:13.722Z,87.63
2022-10-22T03:06:15.956Z,87.57
2022-10-22T03:07:18.167Z,87.46
2022-10-22T03:08:20.304Z,87.55
2022-10-22T03:09:24.742Z,87.57
2022-10-22T03:10:27.327Z,87.76
2022-10-22T03:11:29.676Z,87.85
2022-10-22T03:12:31.864Z,87.71
2022-10-22T03:13:34.001Z,87.93
2022-10-22T03:14:36.507Z,88.06
2022-10-22T03:15:38.910Z,88.23
2022-10-22T03:16:41.075Z,88.20
2022-10-22T03:17:43.375Z,88.37
2022-10-22T03:18:45.610Z,88.28
2022-10-22T03:19:47.959Z,88.35
2022-10-22T03:20:50.311Z,88.55
2022-10-22T03:22:00.089Z,89.06
2022-10-22T03:23:03.313Z,89.07
2022-10-22T03:24:27.493Z,88.92
2022-10-22T03:25:34.619Z,88.78
2022-10-22T03:26:38.279Z,88.88
2022-10-22T03:27:41.677Z,88.80
2022-10-22T03:28:44.244Z,88.53
2022-10-22T03:29:50.082Z,88.36
2022-10-22T03:30:52.583Z,88.22
2022-10-22T03:31:55.194Z,88.56
2022-10-22T03:32:57.630Z,88.37
2022-10-22T03:33:59.814Z,88.36
2022-10-22T03:35:02.121Z,88.29
2022-10-22T03:36:06.161Z,88.24
2022-10-22T03:37:08.534Z,88.23
2022-10-22T03:38:11.216Z,88.24
2022-10-22T03:39:16.130Z,88.08
2022-10-22T03:40:19.081Z,88.08
2022-10-22T03:41:21.336Z,87.86
2022-10-22T03:42:24.169Z,87.83
2022-10-22T03:43:26.772Z,87.70
2022-10-22T03:44:29.872Z,87.72
2022-10-22T03:45:32.368Z,87.54
2022-10-22T03:46:34.556Z,87.48
2022-10-22T03:47:37.509Z,87.36
2022-10-22T03:48:39.868Z,87.49
2022-10-22T03:49:42.201Z,87.44
2022-10-22T03:50:44.555Z,87.41
2022-10-22T03:51:46.763Z,87.42
2022-10-22T03:52:49.050Z,87.54
2022-10-22T03:53:51.266Z,87.67
2022-10-22T03:54:53.633Z,87.80
2022-10-22T03:55:55.920Z,87.99
2022-10-22T03:56:58.076Z,87.79
2022-10-22T03:58:00.368Z,87.58
2022-10-22T03:59:03.880Z,87.71
2022-10-22T04:00:07.080Z,87.62
2022-10-22T04:01:12.140Z,87.77
2022-10-22T04:02:14.588Z,87.76
2022-10-22T04:03:17.039Z,87.62
2022-10-22T04:04:19.271Z,87.63
2022-10-22T04:05:21.527Z,87.76
2022-10-22T04:06:24.496Z,87.64
2022-10-22T04:07:26.905Z,87.67
2022-10-22T04:08:29.181Z,87.58
2022-10-22T04:09:32.712Z,87.51
2022-10-22T04:10:34.912Z,87.52
2022-10-22T04:11:37.227Z,87.65
2022-10-22T04:12:39.429Z,87.51
2022-10-22T04:13:42.630Z,87.58
2022-10-22T04:14:44.951Z,86.99
2022-10-22T04:15:47.162Z,86.91
2022-10-22T04:16:49.488Z,86.99
2022-10-22T04:17:51.714Z,87.19
2022-10-22T04:18:53.877Z,87.18
2022-10-22T04:19:56.153Z,87.40
2022-10-22T04:20:58.304Z,87.27
2022-10-22T04:22:00.969Z,87.23
2022-10-22T04:23:03.127Z,87.36
2022-10-22T04:24:05.689Z,86.98
2022-10-22T04:25:08.262Z,87.15
2022-10-22T04:26:10.569Z,87.03
2022-10-22T04:27:12.724Z,86.73
2022-10-22T04:28:15.034Z,86.90
2022-10-22T04:29:17.205Z,86.83
2022-10-22T04:30:19.716Z,86.87
2022-10-22T04:31:24.236Z,87.01
2022-10-22T04:32:27.341Z,86.90
2022-10-22T04:33:29.676Z,86.83
2022-10-22T04:34:32.495Z,87.11
2022-10-22T04:35:38.913Z,87.02
2022-10-22T04:36:41.248Z,87.07
2022-10-22T04:37:43.518Z,87.13
2022-10-22T04:38:47.548Z,86.98
2022-10-22T04:39:49.736Z,86.89
2022-10-22T04:40:51.899Z,86.80
2022-10-22T04:41:54.450Z,86.76
2022-10-22T04:42:56.885Z,86.71
2022-10-22T04:44:00.064Z,86.68
2022-10-22T04:45:02.511Z,86.74
2022-10-22T04:46:05.731Z,86.52
2022-10-22T04:47:08.185Z,86.94
2022-10-22T04:48:10.381Z,86.84
2022-10-22T04:49:12.828Z,87.03
2022-10-22T04:50:15.264Z,86.92
2022-10-22T04:51:20.343Z,87.08
2022-10-22T04:52:22.800Z,87.31
2022-10-22T04:53:24.958Z,87.25
2022-10-22T04:54:30.500Z,87.26
2022-10-22T04:55:35.321Z,87.25
2022-10-22T04:56:37.474Z,87.25
2022-10-22T04:57:40.175Z,87.52
2022-10-22T04:58:43.700Z,87.44
2022-10-22T04:59:45.849Z,87.33
2022-10-22T05:00:48.224Z,87.26
2022-10-22T05:01:50.396Z,87.15
2022-10-22T05:02:52.932Z,87.13
2022-10-22T05:03:56.472Z,87.24
2022-10-22T05:04:58.631Z,87.42
2022-10-22T05:06:02.049Z,87.11
2022-10-22T05:07:04.423Z,87.24
2022-10-22T05:08:06.608Z,87.14
2022-10-22T05:09:13.341Z,86.91
2022-10-22T05:10:16.011Z,86.79
2022-10-22T05:11:20.719Z,87.24
2022-10-22T05:12:23.025Z,87.41
2022-10-22T05:13:25.311Z,87.53
2022-10-22T05:14:27.663Z,87.60
2022-10-22T05:15:29.956Z,87.57
2022-10-22T05:16:33.916Z,87.65
2022-10-22T05:17:37.688Z,87.49
2022-10-22T05:18:42.767Z,87.56
2022-10-22T05:19:44.941Z,87.07
2022-10-22T05:20:47.256Z,87.03
2022-10-22T05:21:51.380Z,87.29
2022-10-22T05:22:53.826Z,87.11
2022-10-22T05:23:57.295Z,87.25
2022-10-22T05:24:59.603Z,87.41
2022-10-22T05:26:03.866Z,87.32
2022-10-22T05:27:06.069Z,87.28
2022-10-22T05:28:08.474Z,87.47
2022-10-22T05:29:10.987Z,87.37
2022-10-22T05:30:13.470Z,87.43
2022-10-22T05:31:17.269Z,87.44
2022-10-22T05:32:19.583Z,87.26
2022-10-22T05:33:24.067Z,87.24
2022-10-22T05:34:26.468Z,87.24
2022-10-22T05:35:28.777Z,87.48
2022-10-22T05:36:30.924Z,87.59
2022-10-22T05:37:33.310Z,87.32
2022-10-22T05:38:35.867Z,87.27
2022-10-22T05:39:40.263Z,87.13
2022-10-22T05:40:42.647Z,87.40
2022-10-22T05:41:44.890Z,87.29
2022-10-22T05:42:47.248Z,87.15
2022-10-22T05:43:49.686Z,87.18
2022-10-22T05:44:51.830Z,87.18
2022-10-22T05:45:53.992Z,87.22
2022-10-22T05:46:56.371Z,87.12
2022-10-22T05:47:58.638Z,87.25
2022-10-22T05:49:03.499Z,87.19
2022-10-22T05:50:06.465Z,87.34
2022-10-22T05:51:13.193Z,87.12
2022-10-22T05:52:15.576Z,87.51
2022-10-22T05:53:18.523Z,87.50
2022-10-22T05:54:22.456Z,87.25
2022-10-22T05:55:24.665Z,86.97
2022-10-22T05:56:29.257Z,86.91
2022-10-22T05:57:31.444Z,86.65
2022-10-22T05:58:34.570Z,86.65
2022-10-22T05:59:36.758Z,86.70
2022-10-22T06:00:39.329Z,86.86
2022-10-22T06:01:41.591Z,86.98
2022-10-22T06:02:43.816Z,87.15
2022-10-22T06:03:47.209Z,87.27
2022-10-22T06:04:49.382Z,87.12
2022-10-22T06:05:52.304Z,87.35
2022-10-22T06:06:54.553Z,87.39
2022-10-22T06:07:57.822Z,87.50
2022-10-22T06:09:05.351Z,87.61
2022-10-22T06:10:14.868Z,87.78
2022-10-22T06:11:19.275Z,87.57
2022-10-22T06:12:21.468Z,87.67
2022-10-22T06:13:23.683Z,87.83
2022-10-22T06:14:27.011Z,88.07
2022-10-22T06:15:29.225Z,88.29
2022-10-22T06:16:31.904Z,88.08
2022-10-22T06:17:34.217Z,87.90
2022-10-22T06:18:36.408Z,87.91
2022-10-22T06:19:38.880Z,87.82
2022-10-22T06:20:43.182Z,87.87
2022-10-22T06:21:45.849Z,88.01
2022-10-22T06:22:48.339Z,87.99
2022-10-22T06:23:50.927Z,88.43
2022-10-22T06:24:53.235Z,88.34
2022-10-22T06:25:59.255Z,88.31
2022-10-22T06:27:01.527Z,88.45
2022-10-22T06:28:03.759Z,88.59
2022-10-22T06:29:08.733Z,88.39
2022-10-22T06:30:11.168Z,88.28
2022-10-22T06:31:14.445Z,88.19
2022-10-22T06:32:16.846Z,87.87
2022-10-22T06:33:19.138Z,88.08
2022-10-22T06:34:21.756Z,88.08
2022-10-22T06:35:23.998Z,88.38
2022-10-22T06:36:26.380Z,88.37
2022-10-22T06:37:28.561Z,88.61
2022-10-22T06:38:30.872Z,88.70
2022-10-22T06:39:33.317Z,88.63
2022-10-22T06:40:35.721Z,88.70
2022-10-22T06:41:38.042Z,88.51
2022-10-22T06:42:40.645Z,88.45
2022-10-22T06:43:47.655Z,88.64
2022-10-22T06:44:50.007Z,88.67
2022-10-22T06:45:52.193Z,88.33
2022-10-22T06:46:55.793Z,88.14
2022-10-22T06:47:57.958Z,87.99
2022-10-22T06:49:03.009Z,87.97
2022-10-22T06:50:05.787Z,88.01
2022-10-22T06:51:11.280Z,88.05
2022-10-22T06:52:13.628Z,87.90
2022-10-22T06:53:15.868Z,87.99
2022-10-22T06:54:21.084Z,88.02
2022-10-22T06:55:23.307Z,87.74
2022-10-22T06:56:27.804Z,87.56
2022-10-22T06:57:31.002Z,87.32
2022-10-22T06:58:33.394Z,87.87
2022-10-22T06:59:35.819Z,87.53
2022-10-22T07:00:37.995Z,87.06
2022-10-22T07:01:40.266Z,86.76
2022-10-22T07:02:42.877Z,86.62
2022-10-22T07:03:45.676Z,86.71
2022-10-22T07:04:47.828Z,86.41
2022-10-22T07:05:50.338Z,86.68
2022-10-22T07:06:56.051Z,86.76
2022-10-22T07:07:58.260Z,86.88
2022-10-22T07:09:00.643Z,86.97
2022-10-22T07:10:03.275Z,87.17
2022-10-22T07:11:07.720Z,87.13
2022-10-22T07:12:10.062Z,87.21
2022-10-22T07:13:12.285Z,87.23
2022-10-22T07:14:14.903Z,86.98
2022-10-22T07:15:17.500Z,86.79
2022-10-22T07:16:19.857Z,86.51
2022-10-22T07:17:22.010Z,86.58
2022-10-22T07:18:24.449Z,86.71
2022-10-22T07:19:26.835Z,86.52
2022-10-22T07:20:29.165Z,86.59
2022-10-22T07:21:31.832Z,86.64
2022-10-22T07:22:34.166Z,86.53
2022-10-22T07:23:37.136Z,86.42
2022-10-22T07:24:39.285Z,86.45
2022-10-22T07:25:41.921Z,86.48
2022-10-22T07:26:44.156Z,86.50
2022-10-22T07:27:46.317Z,86.59
2022-10-22T07:28:48.650Z,86.32
2022-10-22T07:29:50.897Z,86.36
2022-10-22T07:30:53.117Z,86.18
2022-10-22T07:31:55.318Z,86.09
2022-10-22T07:32:57.571Z,85.99
2022-10-22T07:33:59.780Z,86.08
2022-10-22T07:35:01.938Z,86.03
2022-10-22T07:36:07.220Z,85.63
2022-10-22T07:37:09.382Z,85.53
2022-10-22T07:38:11.548Z,85.49
2022-10-22T07:39:13.789Z,84.75
2022-10-22T07:40:16.151Z,84.87
2022-10-22T07:41:18.361Z,84.32
2022-10-22T07:42:20.608Z,84.42
2022-10-22T07:43:22.842Z,84.45
2022-10-22T07:44:25.077Z,84.56
2022-10-22T07:45:27.371Z,84.29
2022-10-22T07:46:29.549Z,84.24
2022-10-22T07:50:12.859Z,83.61
2022-10-22T07:51:16.686Z,83.54
2022-10-22T07:52:18.840Z,83.84
2022-10-22T07:53:24.122Z,83.85
2022-10-22T07:54:26.250Z,83.89
2022-10-22T07:55:28.370Z,83.95
2022-10-22T07:56:30.718Z,84.04
2022-10-22T07:57:33.034Z,83.91
2022-10-22T07:58:35.864Z,84.01
2022-10-22T07:59:38.013Z,84.12
2022-10-22T08:00:40.855Z,84.26
2022-10-22T08:01:43.041Z,84.07
2022-10-22T08:02:45.432Z,84.13
2022-10-22T08:03:48.855Z,83.89
2022-10-22T08:04:51.957Z,83.75
2022-10-22T08:05:54.606Z,84.02
2022-10-22T08:06:56.776Z,83.92
2022-10-22T08:07:59.255Z,83.56
2022-10-22T08:09:02.173Z,83.39
2022-10-22T08:10:04.726Z,83.62
2022-10-22T08:11:07.374Z,83.73
2022-10-22T08:12:09.601Z,83.72
2022-10-22T08:13:11.808Z,83.85
2022-10-22T08:14:14.191Z,83.85
2022-10-22T08:15:16.548Z,83.99
2022-10-22T08:16:19.085Z,83.83
2022-10-22T08:17:21.315Z,84.14
2022-10-22T08:18:23.499Z,84.19
2022-10-22T08:19:25.891Z,84.38
2022-10-22T08:20:28.262Z,84.42
2022-10-22T08:21:30.658Z,84.31
2022-10-22T08:22:32.849Z,84.46
2022-10-22T08:23:35.332Z,84.56
2022-10-22T08:24:37.686Z,84.42
2022-10-22T08:25:39.968Z,84.14
2022-10-22T08:26:42.597Z,83.89
2022-10-22T08:27:45.777Z,83.95
2022-10-22T08:28:48.078Z,83.90
2022-10-22T08:29:50.275Z,83.68
2022-10-22T08:30:52.547Z,83.86
2022-10-22T08:31:54.966Z,84.03
2022-10-22T08:32:57.585Z,84.15
2022-10-22T08:34:00.052Z,84.28
2022-10-22T08:35:02.361Z,84.21
2022-10-22T08:36:05.412Z,83.59
2022-10-22T08:37:08.861Z,83.67
2022-10-22T08:38:11.348Z,83.95
2022-10-22T08:39:14.000Z,84.03
2022-10-22T08:40:25.890Z,84.18
2022-10-22T08:41:28.395Z,84.18
2022-10-22T08:42:45.830Z,84.29
2022-10-22T08:44:24.896Z,84.49
2022-10-22T08:45:44.707Z,84.43
2022-10-22T08:47:22.450Z,84.51
2022-10-22T08:48:42.352Z,84.52
2022-10-22T08:49:44.825Z,84.53
2022-10-22T08:50:50.890Z,84.37
2022-10-22T08:51:53.660Z,84.03
2022-10-22T08:53:02.910Z,84.19
2022-10-22T08:54:19.630Z,84.18
2022-10-22T08:55:25.597Z,84.45
2022-10-22T08:56:28.943Z,84.90
2022-10-22T08:57:52.423Z,84.66
2022-10-22T08:59:13.950Z,84.42
2022-10-22T09:00:22.659Z,84.46
2022-10-22T09:01:46.755Z,84.59
2022-10-22T09:03:07.120Z,84.75
2022-10-22T09:04:41.405Z,84.80
2022-10-22T09:05:55.549Z,84.66
2022-10-22T09:06:59.364Z,84.51
2022-10-22T09:08:02.127Z,84.58
2022-10-22T09:09:13.054Z,84.65
2022-10-22T09:10:15.643Z,84.51
2022-10-22T09:11:37.767Z,84.83
2022-10-22T09:12:40.512Z,84.87
2022-10-22T09:13:45.547Z,84.82
2022-10-22T09:14:47.864Z,84.75
2022-10-22T09:15:59.096Z,84.70
2022-10-22T09:17:16.306Z,84.90
2022-10-22T09:18:50.910Z,85.07
2022-10-22T09:20:16.165Z,84.79
2022-10-22T09:22:00.976Z,85.01
2022-10-22T09:23:27.525Z,84.72
2022-10-22T09:24:55.579Z,84.61
2022-10-22T09:25:58.140Z,84.64
2022-10-22T09:27:01.707Z,84.64
2022-10-22T09:28:04.874Z,84.74
2022-10-22T09:29:14.158Z,84.74
2022-10-22T09:30:22.593Z,84.56
2022-10-22T09:31:28.136Z,84.72
2022-10-22T09:32:32.045Z,84.63
2022-10-22T09:33:34.296Z,84.55
2022-10-22T09:34:36.700Z,84.40
2022-10-22T09:35:53.426Z,84.38
2022-10-22T09:37:01.654Z,84.14
2022-10-22T09:38:08.574Z,83.95
2022-10-22T09:39:33.657Z,83.90
2022-10-22T09:40:44.113Z,83.82
2022-10-22T09:41:46.330Z,83.35
2022-10-22T09:42:49.619Z,82.66
2022-10-22T09:43:52.078Z,82.57
2022-10-22T09:44:59.564Z,82.45
2022-10-22T09:46:07.605Z,82.71
2022-10-22T09:47:42.806Z,82.71
2022-10-22T09:49:03.620Z,82.47
2022-10-22T09:50:37.054Z,82.61
2022-10-22T09:52:24.227Z,82.71
2022-10-22T09:53:29.973Z,82.73
2022-10-22T09:54:32.261Z,82.97
2022-10-22T09:55:34.716Z,82.83
2022-10-22T09:56:42.861Z,82.93
2022-10-22T09:57:53.432Z,82.85
2022-10-22T09:58:57.638Z,82.75
2022-10-22T09:59:59.981Z,82.89
2022-10-22T10:01:02.573Z,82.98
2022-10-22T10:02:26.642Z,83.08
2022-10-22T10:03:39.597Z,82.95
2022-10-22T10:04:50.375Z,82.51
2022-10-22T10:05:55.593Z,82.81
2022-10-22T10:06:58.527Z,82.87
2022-10-22T10:08:15.660Z,82.69
2022-10-22T10:09:21.288Z,82.53
2022-10-22T10:10:31.597Z,82.12
2022-10-22T10:11:43.549Z,81.71
2022-10-22T10:13:20.579Z,81.74
2022-10-22T10:14:48.286Z,81.56
2022-10-22T10:16:12.059Z,81.31
2022-10-22T10:17:23.202Z,81.18
2022-10-22T10:18:45.816Z,81.10
2022-10-22T10:20:04.075Z,80.77
2022-10-22T10:22:25.264Z,79.44
2022-10-22T10:24:09.247Z,79.00
2022-10-22T10:25:40.683Z,79.55
2022-10-22T10:26:47.659Z,79.65
2022-10-22T10:28:25.505Z,80.10
2022-10-22T10:29:47.791Z,79.86
2022-10-22T10:31:21.127Z,79.84
2022-10-22T10:32:48.171Z,79.37
2022-10-22T10:33:53.004Z,78.86
2022-10-22T10:35:21.395Z,79.11
2022-10-22T10:36:41.607Z,78.78
2022-10-22T10:37:51.096Z,78.65
2022-10-22T10:39:34.703Z,78.63
2022-10-22T10:40:36.824Z,77.90
2022-10-22T10:42:01.600Z,77.83
2022-10-22T10:43:20.664Z,77.67
2022-10-22T10:45:07.417Z,78.12
2022-10-22T10:46:36.234Z,77.46
2022-10-22T10:47:51.589Z,77.62
2022-10-22T10:48:53.794Z,77.54
2022-10-22T10:50:16.757Z,77.69
2022-10-22T10:51:28.975Z,77.35
2022-10-22T10:52:49.807Z,77.29
2022-10-22T10:54:26.496Z,77.07
2022-10-22T10:55:36.339Z,76.70
2022-10-22T10:57:09.812Z,76.80
2022-10-22T10:58:21.659Z,76.58
2022-10-22T10:59:32.697Z,77.03
2022-10-22T11:00:45.637Z,77.48
2022-10-22T11:02:20.227Z,77.64
2022-10-22T11:03:39.944Z,77.23
2022-10-22T11:04:59.180Z,76.82
2022-10-22T11:06:09.824Z,76.21
2022-10-22T11:07:33.461Z,76.04
2022-10-22T11:08:39.623Z,76.76
2022-10-22T11:09:48.267Z,77.13
2022-10-22T11:10:59.490Z,77.55
2022-10-22T11:12:06.886Z,77.17
2022-10-22T11:13:19.608Z,77.52
2022-10-22T11:15:07.014Z,77.41
2022-10-22T11:16:27.217Z,77.04
2022-10-22T11:17:40.110Z,76.73
2022-10-22T11:18:58.348Z,76.59
2022-10-22T11:20:15.651Z,76.57
2022-10-22T11:21:22.756Z,75.85
2022-10-22T11:23:00.357Z,76.01
2022-10-22T11:24:05.439Z,75.54
2022-10-22T11:25:13.787Z,75.46
2022-10-22T11:26:46.191Z,75.55
2022-10-22T11:28:06.742Z,76.05
2022-10-22T11:29:22.258Z,76.25
2022-10-22T11:30:28.650Z,76.63
2022-10-22T11:31:32.570Z,76.93
2022-10-22T11:32:35.489Z,77.48
2022-10-22T11:34:28.516Z,77.68
2022-10-22T11:35:41.408Z,77.59
2022-10-22T11:36:45.747Z,77.40
2022-10-22T11:37:48.448Z,77.23
2022-10-22T11:38:51.355Z,76.83
2022-10-22T11:40:07.949Z,76.71
2022-10-22T11:41:13.733Z,76.94
2022-10-22T11:42:39.376Z,77.15
2022-10-22T11:43:58.736Z,77.30
2022-10-22T11:45:05.160Z,77.44
2022-10-22T11:46:16.227Z,77.51
2022-10-22T11:47:26.818Z,77.62
2022-10-22T11:48:36.307Z,77.70
2022-10-22T11:49:44.857Z,77.64
2022-10-22T11:51:02.138Z,78.01
2022-10-22T11:52:32.600Z,78.03
2022-10-22T11:53:38.896Z,78.07
2022-10-22T11:54:44.566Z,77.99
2022-10-22T11:55:49.959Z,78.10
2022-10-22T11:56:58.448Z,78.14
2022-10-22T11:58:02.848Z,78.08
2022-10-22T11:59:28.565Z,77.67
2022-10-22T12:00:39.577Z,77.29
2022-10-22T12:01:42.603Z,76.47
2022-10-22T12:02:45.270Z,77.27
2022-10-22T12:04:20.508Z,77.25
2022-10-22T12:05:22.771Z,77.62
2022-10-22T12:06:29.329Z,77.09
2022-10-22T12:07:56.997Z,76.93
2022-10-22T12:09:04.753Z,76.71
2022-10-22T12:10:19.239Z,76.33
2022-10-22T12:11:37.452Z,76.01
2022-10-22T12:12:40.602Z,76.51
2022-10-22T12:14:03.573Z,76.53
2022-10-22T12:15:24.248Z,76.32
2022-10-22T12:16:37.778Z,76.54
2022-10-22T12:18:05.973Z,76.90
2022-10-22T12:19:11.214Z,77.24
2022-10-22T12:20:14.432Z,77.36
2022-10-22T12:21:17.104Z,77.43
2022-10-22T12:22:25.183Z,77.38
2022-10-22T12:23:34.198Z,77.61
2022-10-22T12:24:40.660Z,78.06
2022-10-22T12:25:43.004Z,78.35
2022-10-22T12:26:46.959Z,78.28
2022-10-22T12:27:55.130Z,78.53
2022-10-22T12:29:10.367Z,78.19
2022-10-22T12:30:27.736Z,78.24
2022-10-22T12:31:36.547Z,78.12
2022-10-22T12:32:42.529Z,77.74
2022-10-22T12:33:45.755Z,77.74
2022-10-22T12:34:52.468Z,77.76
2022-10-22T12:35:57.676Z,77.33
2022-10-22T12:37:00.150Z,77.07
2022-10-22T12:38:08.585Z,77.02
2022-10-22T12:39:16.748Z,76.88
2022-10-22T12:40:33.270Z,77.01
2022-10-22T12:41:38.558Z,76.74
2022-10-22T12:42:48.156Z,76.57
2022-10-22T12:43:59.142Z,75.98
2022-10-22T12:45:01.503Z,75.92
2022-10-22T12:46:03.757Z,75.70
2022-10-22T12:47:08.603Z,75.46
2022-10-22T12:48:35.095Z,75.02
2022-10-22T12:49:43.329Z,75.29
2022-10-22T12:50:50.735Z,74.34
2022-10-22T12:51:54.037Z,74.49
2022-10-22T12:52:56.313Z,74.42
2022-10-22T12:54:07.035Z,74.30
2022-10-22T12:55:10.739Z,74.28
2022-10-22T12:56:16.438Z,74.22
2022-10-22T12:57:20.365Z,74.22
2022-10-22T12:58:27.673Z,74.49
2022-10-22T12:59:36.843Z,74.83
2022-10-22T13:00:39.242Z,74.96
2022-10-22T13:01:43.579Z,75.35
2022-10-22T13:02:46.061Z,75.28
2022-10-22T13:03:50.938Z,75.26
2022-10-22T13:05:20.309Z,75.02
2022-10-22T13:06:26.294Z,74.76
2022-10-22T13:07:39.158Z,74.71
2022-10-22T13:08:41.410Z,74.69
2022-10-22T13:09:58.077Z,74.84
2022-10-22T13:11:09.291Z,74.73
2022-10-22T13:12:16.431Z,74.91
2022-10-22T13:13:32.953Z,74.07
2022-10-22T13:14:38.159Z,74.04
2022-10-22T13:15:40.588Z,73.85
2022-10-22T13:16:42.730Z,73.49
2022-10-22T13:17:45.234Z,73.56
2022-10-22T13:18:48.626Z,73.24
2022-10-22T13:19:53.583Z,72.96
2022-10-22T13:21:03.254Z,72.30
2022-10-22T13:22:05.890Z,71.99
2022-10-22T13:23:23.568Z,71.83
2022-10-22T13:24:25.745Z,71.76
2022-10-22T13:25:38.702Z,71.91
2022-10-22T13:26:40.907Z,71.78
2022-10-22T13:27:44.490Z,71.91
2022-10-22T13:28:57.419Z,72.24
2022-10-22T13:30:09.421Z,71.92
2022-10-22T13:31:18.180Z,72.11
2022-10-22T13:32:33.976Z,71.84
2022-10-22T13:33:39.401Z,71.66
2022-10-22T13:34:41.675Z,71.51
2022-10-22T13:35:43.851Z,71.75
2022-10-22T13:36:46.713Z,72.30
2022-10-22T13:37:49.187Z,73.00
2022-10-22T13:38:51.501Z,73.33
2022-10-22T13:39:53.802Z,72.93
2022-10-22T13:40:56.464Z,72.95
2022-10-22T13:41:59.037Z,72.79
2022-10-22T13:43:01.191Z,73.17
2022-10-22T13:44:03.386Z,73.60
2022-10-22T13:45:06.752Z,73.84
2022-10-22T13:46:09.706Z,73.80
2022-10-22T13:47:29.689Z,74.19
2022-10-22T13:48:31.971Z,74.06
2022-10-22T13:49:34.158Z,74.98
2022-10-22T13:50:36.523Z,74.84
2022-10-22T13:51:39.138Z,74.53
2022-10-22T13:52:49.631Z,74.75
2022-10-22T13:53:53.386Z,74.84
2022-10-22T13:54:55.962Z,75.06
2022-10-22T13:55:58.338Z,75.29
2022-10-22T13:57:01.069Z,74.57
2022-10-22T13:58:15.374Z,74.55
2022-10-22T13:59:21.183Z,74.57
2022-10-22T14:00:26.310Z,74.43
2022-10-22T14:01:28.881Z,74.03
2022-10-22T14:02:31.960Z,74.09
2022-10-22T14:03:37.405Z,74.47
2022-10-22T14:04:41.579Z,74.41
2022-10-22T14:05:46.696Z,74.38
2022-10-22T14:06:49.057Z,74.14
2022-10-22T14:07:52.700Z,73.63
2022-10-22T14:08:58.551Z,73.62
2022-10-22T14:10:01.059Z,73.46
2022-10-22T14:11:04.392Z,73.86
2022-10-22T14:12:17.070Z,74.36
2022-10-22T14:13:20.619Z,74.57
2022-10-22T14:14:22.972Z,74.21
2022-10-22T14:15:28.655Z,74.07
2022-10-22T14:16:33.213Z,73.78
2022-10-22T14:17:35.718Z,73.50
2022-10-22T14:18:37.910Z,73.67
2022-10-22T14:19:40.204Z,73.83
2022-10-22T14:20:43.081Z,73.86
2022-10-22T14:21:45.619Z,74.10
2022-10-22T14:22:49.682Z,73.88
2022-10-22T14:23:54.076Z,74.03
2022-10-22T14:24:56.508Z,73.51
2022-10-22T14:25:59.753Z,73.55
2022-10-22T14:27:02.083Z,73.32
2022-10-22T14:28:04.691Z,73.40
2022-10-22T14:29:11.018Z,73.69
2022-10-22T14:30:22.994Z,73.87
2022-10-22T14:31:25.520Z,74.14
2022-10-22T14:32:28.486Z,74.31